Time;durP1;ratioP1;P1;durP2;ratioP2;P2;SDS_P1;SDS_P2;PMS_P1;PMS_P2;Temp;Humidity;BMP_temperature;BMP_pressure;BME280_temperature;BME280_humidity;BME280_pressure;Samples;Min_cycle;Max_cycle;Signal;HPM_P1;HPM_P2
2022/04/03 00:00:35;;;;;;;5.80;4.43;;;-0.70;99.90;;;;;;5056418;28;20924;-85
2022/04/03 00:03:05;;;;;;;5.23;4.10;;;-0.70;99.90;;;;;;5055320;28;20657;-84
2022/04/03 00:05:35;;;;;;;7.17;5.13;;;-0.60;99.90;;;;;;5060832;28;20419;-85
2022/04/03 00:08:00;;;;;;;6.13;4.80;;;-0.70;99.90;;;;;;5049203;28;20456;-85
2022/04/03 00:10:28;;;;;;;5.10;3.70;;;-0.70;99.90;;;;;;5053118;28;20914;-85
2022/04/03 00:12:54;;;;;;;6.17;4.20;;;-0.80;99.90;;;;;;5035891;28;20689;-84
2022/04/03 00:15:22;;;;;;;5.57;4.90;;;-0.80;99.90;;;;;;5054012;28;20421;-86
2022/04/03 00:17:48;;;;;;;5.57;4.40;;;-0.90;99.90;;;;;;5053464;28;20177;-84
2022/04/03 00:20:14;;;;;;;6.63;5.03;;;-0.10;99.90;;;;;;5053680;28;20483;-89
2022/04/03 00:22:40;;;;;;;6.20;4.73;;;-0.50;1.00;;;;;;5036153;28;20232;-87
2022/04/03 00:25:06;;;;;;;8.50;5.23;;;-0.60;1.00;;;;;;5053488;28;20420;-86
2022/04/03 00:27:32;;;;;;;5.77;4.70;;;-0.50;1.00;;;;;;5035760;28;20421;-84
2022/04/03 00:29:57;;;;;;;7.20;5.13;;;-0.60;1.00;;;;;;5053422;28;20567;-86
2022/04/03 00:32:23;;;;;;;6.00;3.97;;;-0.50;1.00;;;;;;5035351;28;20308;-85
2022/04/03 00:34:49;;;;;;;5.70;4.67;;;-0.50;1.00;;;;;;5052913;28;20189;-83
2022/04/03 00:37:14;;;;;;;6.60;4.90;;;-0.50;1.00;;;;;;5053476;28;20403;-86
2022/04/03 00:39:40;;;;;;;11.20;4.30;;;-0.40;1.00;;;;;;5052597;28;20178;-86
2022/04/03 00:42:08;;;;;;;5.90;3.83;;;-0.40;1.00;;;;;;5052704;28;20205;-85
2022/04/03 00:44:35;;;;;;;7.60;5.93;;;-0.40;1.00;;;;;;5052783;28;20174;-85
2022/04/03 00:47:01;;;;;;;8.20;4.77;;;-0.40;1.00;;;;;;5035037;28;20408;-86
2022/04/03 00:49:27;;;;;;;8.40;4.37;;;-0.30;1.00;;;;;;5034539;28;20471;-85
2022/04/03 00:51:53;;;;;;;7.43;4.27;;;-0.30;1.00;;;;;;5052949;28;20407;-85
2022/04/03 00:54:21;;;;;;;12.20;5.40;;;-0.30;1.00;;;;;;5034690;28;20506;-84
2022/04/03 00:56:47;;;;;;;6.87;4.47;;;-0.20;17.90;;;;;;5034895;28;20545;-85
2022/04/03 00:59:13;;;;;;;6.03;4.30;;;-0.30;1.00;;;;;;5052781;28;20419;-87
2022/04/03 01:01:41;;;;;;;5.60;4.47;;;-0.20;14.20;;;;;;5052742;28;20260;-87
2022/04/03 01:04:07;;;;;;;4.97;4.00;;;-0.10;23.30;;;;;;5052408;28;20408;-86
2022/04/03 01:06:33;;;;;;;10.80;5.10;;;-0.10;15.10;;;;;;5034504;28;20467;-86
2022/04/03 01:08:59;;;;;;;8.27;5.20;;;0.00;43.20;;;;;;5052740;28;20517;-85
2022/04/03 01:11:25;;;;;;;5.80;4.53;;;0.00;29.20;;;;;;5052777;28;20450;-84
2022/04/03 01:13:51;;;;;;;6.30;3.87;;;-0.10;1.00;;;;;;5034804;28;20622;-84
2022/04/03 01:16:17;;;;;;;4.57;4.00;;;-0.10;6.40;;;;;;5052638;28;20459;-85
2022/04/03 01:18:50;;;;;;;9.30;5.70;;;-0.10;1.00;;;;;;5033830;28;20460;-85
2022/04/03 01:21:17;;;;;;;6.20;4.60;;;-0.20;1.00;;;;;;5052101;28;20745;-84
2022/04/03 01:23:43;;;;;;;6.50;3.63;;;-0.20;1.70;;;;;;5052171;28;20453;-85
2022/04/03 01:26:08;;;;;;;5.77;4.10;;;-0.10;5.80;;;;;;5052388;28;20450;-85
2022/04/03 01:28:34;;;;;;;5.47;3.27;;;0.00;1.00;;;;;;5052369;28;20209;-85
2022/04/03 01:31:00;;;;;;;7.30;3.93;;;-0.10;1.00;;;;;;5052376;28;20208;-85
2022/04/03 01:33:25;;;;;;;6.90;4.37;;;-0.10;1.00;;;;;;5051934;28;20211;-84
2022/04/03 01:35:51;;;;;;;6.87;3.83;;;-0.20;1.00;;;;;;5052299;28;20179;-84
2022/04/03 01:38:19;;;;;;;6.97;4.93;;;-0.20;1.00;;;;;;5052139;28;20572;-84
2022/04/03 01:40:44;;;;;;;7.00;3.90;;;-0.20;1.00;;;;;;5034390;28;20515;-84
2022/04/03 01:43:10;;;;;;;8.03;4.13;;;-0.30;1.00;;;;;;5034304;28;20427;-84
2022/04/03 01:45:37;;;;;;;8.00;5.33;;;-0.10;1.00;;;;;;5063356;28;20280;-84
2022/04/03 01:48:04;;;;;;;4.40;3.80;;;0.10;1.00;;;;;;5061538;28;20419;-84
2022/04/03 01:50:29;;;;;;;5.90;4.00;;;0.10;1.00;;;;;;5044828;28;20427;-85
2022/04/03 01:52:55;;;;;;;10.00;4.80;;;-0.10;1.00;;;;;;5042047;28;20428;-85
2022/04/03 01:55:20;;;;;;;5.37;4.87;;;-0.30;1.00;;;;;;5052099;28;20174;-86
2022/04/03 01:57:46;;;;;;;5.80;4.30;;;-0.30;1.00;;;;;;5033860;28;20174;-85
2022/04/03 02:00:12;;;;;;;4.43;4.03;;;-0.30;1.10;;;;;;5050796;28;20208;-84
2022/04/03 02:02:38;;;;;;;6.90;4.27;;;-0.30;1.00;;;;;;5051259;28;20513;-84
2022/04/03 02:05:05;;;;;;;5.87;5.20;;;-0.30;1.00;;;;;;5034216;28;20455;-84
2022/04/03 02:07:32;;;;;;;6.87;4.43;;;-0.10;1.00;;;;;;5051791;28;20467;-85
2022/04/03 02:10:02;;;;;;;6.73;4.00;;;-0.10;1.00;;;;;;5034154;28;20468;-84
2022/04/03 02:12:28;;;;;;;7.80;4.97;;;0.00;1.00;;;;;;5034274;28;20443;-85
2022/04/03 02:14:53;;;;;;;7.87;4.83;;;0.10;1.00;;;;;;5034108;28;20420;-84
2022/04/03 02:17:19;;;;;;;5.33;4.27;;;0.10;1.00;;;;;;5034364;28;20665;-84
2022/04/03 02:19:44;;;;;;;7.03;4.73;;;0.10;1.00;;;;;;5051323;28;20581;-85
2022/04/03 02:22:10;;;;;;;7.13;4.37;;;0.20;99.90;;;;;;5050443;28;20212;-86
2022/04/03 02:24:35;;;;;;;4.00;3.20;;;0.10;1.00;;;;;;5052002;28;20247;-86
2022/04/03 02:27:05;;;;;;;7.33;4.80;;;0.00;1.00;;;;;;5045541;28;20231;-85
2022/04/03 02:29:30;;;;;;;4.20;3.70;;;0.10;1.00;;;;;;5034899;28;20259;-85
2022/04/03 02:31:56;;;;;;;8.70;4.83;;;0.10;1.00;;;;;;5034748;28;20804;-85
2022/04/03 02:34:21;;;;;;;5.97;4.30;;;0.10;1.00;;;;;;5054963;28;20261;-85
2022/04/03 02:36:47;;;;;;;4.90;2.97;;;0.10;1.00;;;;;;5056068;28;20173;-85
2022/04/03 02:39:15;;;;;;;5.47;3.93;;;0.10;1.00;;;;;;5037944;28;20726;-85
2022/04/03 02:41:41;;;;;;;5.10;3.80;;;0.10;1.00;;;;;;5055683;28;20220;-85
2022/04/03 02:44:06;;;;;;;7.53;4.67;;;0.10;99.90;;;;;;5055741;28;20420;-86
2022/04/03 02:46:32;;;;;;;5.40;4.00;;;0.00;99.90;;;;;;5055618;28;20162;-85
2022/04/03 02:48:58;;;;;;;5.73;2.70;;;0.00;99.90;;;;;;5037371;28;20213;-85
2022/04/03 02:51:23;;;;;;;5.10;3.80;;;-0.20;1.00;;;;;;5037677;28;21003;-85
2022/04/03 02:53:49;;;;;;;6.07;3.67;;;-0.20;1.00;;;;;;5037589;28;20273;-85
2022/04/03 02:56:17;;;;;;;6.87;3.90;;;-0.40;1.00;;;;;;5055389;28;20424;-85
2022/04/03 02:58:43;;;;;;;6.90;4.20;;;-0.60;1.00;;;;;;5037364;28;20222;-85
2022/04/03 03:01:09;;;;;;;7.83;4.20;;;-0.70;1.00;;;;;;5037455;28;20504;-85
2022/04/03 03:03:34;;;;;;;4.63;3.67;;;-0.70;1.00;;;;;;5054915;28;20953;-85
2022/04/03 03:06:00;;;;;;;5.17;3.87;;;-0.80;1.00;;;;;;5055039;28;20288;-86
2022/04/03 03:08:25;;;;;;;4.97;4.20;;;-0.90;1.00;;;;;;5037306;28;20301;-85
2022/04/03 03:10:51;;;;;;;7.10;4.80;;;-1.00;22.40;;;;;;5055189;28;20195;-85
2022/04/03 03:13:16;;;;;;;7.40;4.93;;;-1.10;19.20;;;;;;5037155;28;20170;-85
2022/04/03 03:15:44;;;;;;;6.30;4.20;;;-1.10;28.90;;;;;;5037321;28;20181;-87
2022/04/03 03:18:10;;;;;;;7.07;5.57;;;-1.20;68.90;;;;;;5054787;28;20230;-87
2022/04/03 03:20:37;;;;;;;5.23;4.23;;;-1.20;62.90;;;;;;5037440;28;20802;-85
2022/04/03 03:23:02;;;;;;;5.17;4.17;;;-1.30;77.80;;;;;;5054995;28;20408;-85
2022/04/03 03:25:29;;;;;;;9.10;3.37;;;-1.20;99.90;;;;;;5037136;28;20184;-85
2022/04/03 03:27:54;;;;;;;6.47;4.70;;;-1.30;99.90;;;;;;5054897;28;20241;-85
2022/04/03 03:30:21;;;;;;;6.40;4.23;;;-1.30;78.80;;;;;;5036838;28;20880;-86
2022/04/03 03:32:46;;;;;;;6.30;4.23;;;-1.40;84.70;;;;;;5036635;28;20170;-85
2022/04/03 03:35:12;;;;;;;4.67;3.70;;;-1.50;99.90;;;;;;5054724;28;20468;-86
2022/04/03 03:37:39;;;;;;;4.53;3.73;;;-1.50;99.90;;;;;;5036814;28;20622;-86
2022/04/03 03:40:06;;;;;;;5.13;4.53;;;-1.50;99.90;;;;;;5054509;28;20419;-85
2022/04/03 03:42:33;;;;;;;4.47;4.03;;;-1.50;99.90;;;;;;5054569;28;20472;-85
2022/04/03 03:45:01;;;;;;;6.27;4.23;;;-1.50;99.90;;;;;;5053547;28;20451;-85
2022/04/03 03:47:27;;;;;;;10.53;4.53;;;-1.50;99.90;;;;;;5054061;28;20750;-85
2022/04/03 03:49:53;;;;;;;4.40;3.80;;;-1.60;99.90;;;;;;5036440;28;20561;-84
2022/04/03 03:52:18;;;;;;;4.83;3.70;;;-1.70;99.90;;;;;;5036428;28;20525;-85
2022/04/03 03:54:45;;;;;;;4.57;4.17;;;-1.80;99.90;;;;;;5054386;28;20171;-85
2022/04/03 03:57:11;;;;;;;4.80;4.17;;;-1.70;99.90;;;;;;5054271;28;20164;-85
2022/04/03 03:59:36;;;;;;;5.93;4.20;;;-1.70;99.90;;;;;;5054147;28;20420;-85
2022/04/03 04:02:02;;;;;;;5.00;4.20;;;-1.70;99.90;;;;;;5054258;28;20248;-84
2022/04/03 04:04:29;;;;;;;5.80;4.50;;;-1.70;99.90;;;;;;5053861;28;20180;-85
2022/04/03 04:06:55;;;;;;;5.17;3.90;;;-1.70;99.90;;;;;;5053954;28;20205;-85
2022/04/03 04:09:20;;;;;;;5.33;4.20;;;-1.80;99.90;;;;;;5035867;28;20472;-85
2022/04/03 04:11:46;;;;;;;4.03;3.43;;;-1.80;99.90;;;;;;5054080;28;20404;-85
2022/04/03 04:14:11;;;;;;;4.53;3.93;;;-1.70;99.90;;;;;;5054030;28;20172;-85
2022/04/03 04:16:37;;;;;;;3.60;3.00;;;-1.90;99.90;;;;;;5054041;28;20215;-85
2022/04/03 04:19:02;;;;;;;5.87;4.00;;;-1.80;99.90;;;;;;5035794;28;20171;-85
2022/04/03 04:21:28;;;;;;;8.30;5.97;;;-1.80;99.90;;;;;;5036118;28;20514;-86
2022/04/03 04:23:53;;;;;;;6.67;3.80;;;-1.90;99.90;;;;;;5054009;28;20200;-86
2022/04/03 04:26:19;;;;;;;3.93;3.23;;;-2.00;99.90;;;;;;5035930;28;20171;-87
2022/04/03 04:28:47;;;;;;;7.13;4.03;;;-2.10;99.90;;;;;;5053755;28;20204;-85
2022/04/03 04:31:12;;;;;;;6.40;4.13;;;-2.10;99.90;;;;;;5053821;28;20191;-85
2022/04/03 04:33:38;;;;;;;6.23;3.80;;;-2.00;99.90;;;;;;5053369;28;20406;-83
2022/04/03 04:36:06;;;;;;;3.67;3.30;;;-1.90;99.90;;;;;;5035916;28;20269;-84
2022/04/03 04:38:31;;;;;;;4.93;3.67;;;-1.90;99.90;;;;;;5053512;28;20616;-85
2022/04/03 04:40:57;;;;;;;7.20;4.20;;;-2.00;99.90;;;;;;5053552;28;20453;-83
2022/04/03 04:43:22;;;;;;;4.17;3.40;;;-2.00;99.90;;;;;;5053715;28;20169;-85
2022/04/03 04:45:48;;;;;;;6.23;4.00;;;-2.10;99.90;;;;;;5053566;28;20178;-85
2022/04/03 04:48:13;;;;;;;3.87;3.40;;;-2.10;99.90;;;;;;5053228;28;20168;-87
2022/04/03 04:50:39;;;;;;;4.87;3.63;;;-2.30;99.90;;;;;;5053741;28;20179;-87
2022/04/03 04:53:05;;;;;;;5.03;4.60;;;-2.10;99.90;;;;;;5035860;28;20174;-86
2022/04/03 04:55:31;;;;;;;5.90;5.30;;;-2.20;99.90;;;;;;5053373;28;20502;-86
2022/04/03 04:57:57;;;;;;;4.80;3.60;;;-2.20;99.90;;;;;;5053009;28;20499;-86
2022/04/03 05:00:26;;;;;;;5.53;4.90;;;-2.20;99.90;;;;;;5053464;28;20196;-87
2022/04/03 05:02:51;;;;;;;7.23;5.13;;;-2.10;99.90;;;;;;5053038;28;20413;-86
2022/04/03 05:05:18;;;;;;;4.43;3.40;;;-2.10;99.90;;;;;;5053252;28;20474;-87
2022/04/03 05:07:45;;;;;;;4.83;4.30;;;-2.20;99.90;;;;;;5053313;28;20866;-87
2022/04/03 05:10:13;;;;;;;4.50;4.10;;;-2.20;99.90;;;;;;5053160;28;20469;-87
2022/04/03 05:12:39;;;;;;;7.57;3.70;;;-2.20;99.90;;;;;;5053245;28;20412;-87
2022/04/03 05:15:10;;;;;;;4.43;3.97;;;-2.20;99.90;;;;;;5053189;28;20424;-87
2022/04/03 05:17:36;;;;;;;4.80;4.27;;;-2.10;99.90;;;;;;5052845;28;20255;-86
2022/04/03 05:20:03;;;;;;;8.97;5.20;;;-2.00;99.90;;;;;;5053164;28;20925;-85
2022/04/03 05:22:32;;;;;;;5.83;5.20;;;-1.80;99.90;;;;;;5053129;28;20175;-87
2022/04/03 05:24:58;;;;;;;6.90;4.97;;;-1.70;99.90;;;;;;5053164;28;20427;-87
2022/04/03 05:27:24;;;;;;;5.33;4.83;;;-1.80;99.90;;;;;;5053117;28;20405;-86
2022/04/03 05:29:53;;;;;;;8.50;4.10;;;-1.90;99.90;;;;;;5053042;28;20481;-87
2022/04/03 05:32:30;;;;;;;6.77;4.60;;;-1.90;99.90;;;;;;5052844;28;20763;-87
2022/04/03 05:34:56;;;;;;;4.80;3.93;;;-1.90;99.90;;;;;;5052838;28;20748;-87
2022/04/03 05:37:22;;;;;;;7.00;3.77;;;-1.80;99.90;;;;;;5036440;28;20420;-86
2022/04/03 05:39:48;;;;;;;5.50;4.77;;;-1.60;99.90;;;;;;5053139;28;20567;-87
2022/04/03 05:42:14;;;;;;;6.63;4.70;;;-1.40;99.90;;;;;;5052842;28;20815;-86
2022/04/03 05:44:43;;;;;;;7.80;4.43;;;-1.30;99.90;;;;;;5052892;28;20412;-87
2022/04/03 05:47:08;;;;;;;6.00;4.20;;;-1.20;99.90;;;;;;5052244;28;20211;-84
2022/04/03 05:49:34;;;;;;;5.10;4.00;;;-1.10;99.90;;;;;;5052504;28;20494;-84
2022/04/03 05:52:00;;;;;;;5.07;3.90;;;-1.10;99.90;;;;;;5034829;28;20240;-87
2022/04/03 05:54:25;;;;;;;7.97;4.93;;;-1.00;99.90;;;;;;5034901;28;20630;-87
2022/04/03 05:56:51;;;;;;;6.90;4.43;;;-0.80;99.90;;;;;;5052680;28;20180;-84
2022/04/03 05:59:19;;;;;;;8.83;5.80;;;-0.50;99.90;;;;;;5052372;28;20554;-85
2022/04/03 06:01:48;;;;;;;18.43;7.40;;;-0.10;53.30;;;;;;5054889;28;20698;-85
2022/04/03 06:04:14;;;;;;;5.33;3.50;;;0.00;1.00;;;;;;5058961;28;20502;-85
2022/04/03 06:06:40;;;;;;;7.10;4.40;;;0.10;1.00;;;;;;5065858;28;20435;-84
2022/04/03 06:09:05;;;;;;;4.80;3.30;;;0.50;1.00;;;;;;5059846;28;20975;-84
2022/04/03 06:11:31;;;;;;;5.57;3.27;;;0.70;1.00;;;;;;5066847;28;20196;-85
2022/04/03 06:13:56;;;;;;;6.60;4.10;;;1.00;1.00;;;;;;5056232;28;20649;-86
2022/04/03 06:16:21;;;;;;;6.30;4.60;;;1.10;99.90;;;;;;5060841;28;20636;-85
2022/04/03 06:18:47;;;;;;;6.23;4.30;;;1.10;99.90;;;;;;5061241;28;20231;-85
2022/04/03 06:21:12;;;;;;;8.00;3.13;;;1.30;99.90;;;;;;5067102;28;20642;-85
2022/04/03 06:23:38;;;;;;;6.00;3.70;;;1.60;92.10;;;;;;5072839;28;20177;-85
2022/04/03 06:26:06;;;;;;;3.83;3.33;;;1.90;99.90;;;;;;5067237;28;20627;-86
2022/04/03 06:28:32;;;;;;;7.27;3.90;;;2.00;99.90;;;;;;5046827;28;20189;-85
2022/04/03 06:30:57;;;;;;;4.50;2.70;;;3.10;1.00;;;;;;5045990;28;20443;-86
2022/04/03 06:33:23;;;;;;;4.03;2.87;;;5.40;1.00;;;;;;5055565;28;20173;-85
2022/04/03 06:35:49;;;;;;;5.83;2.70;;;5.60;99.90;;;;;;5037498;28;20213;-82
2022/04/03 06:38:17;;;;;;;3.93;1.40;;;7.10;99.90;;;;;;5055465;28;20918;-86
2022/04/03 06:40:51;;;;;;;4.80;2.27;;;4.90;99.90;;;;;;5055665;28;20205;-86
2022/04/03 06:43:22;;;;;;;3.40;2.00;;;3.50;1.00;;;;;;5055636;28;20430;-85
2022/04/03 06:45:48;;;;;;;4.00;2.07;;;3.10;1.00;;;;;;5055731;28;20396;-86
2022/04/03 06:48:14;;;;;;;7.60;3.03;;;3.00;99.90;;;;;;5055105;28;20419;-85
2022/04/03 06:50:39;;;;;;;3.80;1.90;;;2.90;1.00;;;;;;5055536;28;20420;-84
2022/04/03 06:53:05;;;;;;;5.97;2.47;;;2.70;99.90;;;;;;5055548;28;20465;-84
2022/04/03 06:55:31;;;;;;;2.53;1.90;;;2.70;74.90;;;;;;5037623;28;20533;-86
2022/04/03 06:57:56;;;;;;;3.40;1.27;;;2.60;47.50;;;;;;5037669;28;20180;-83
2022/04/03 07:00:26;;;;;;;4.27;2.40;;;2.60;1.00;;;;;;5054744;28;20164;-86
2022/04/03 07:02:54;;;;;;;2.90;1.90;;;2.70;1.00;;;;;;5054781;28;20173;-87
2022/04/03 07:05:20;;;;;;;3.03;2.57;;;2.60;3.70;;;;;;5054976;28;20521;-86
2022/04/03 07:07:46;;;;;;;6.30;2.00;;;2.60;99.90;;;;;;5037195;28;21529;-85
2022/04/03 07:10:11;;;;;;;5.90;4.23;;;2.70;99.90;;;;;;5055030;28;20513;-85
2022/04/03 07:12:38;;;;;;;7.63;2.40;;;2.80;99.90;;;;;;5037446;28;20173;-86
2022/04/03 07:15:11;;;;;;;3.00;2.47;;;2.90;99.90;;;;;;5054945;28;20575;-83
2022/04/03 07:17:41;;;;;;;4.70;2.70;;;3.10;99.90;;;;;;5037051;28;20470;-84
2022/04/03 07:20:12;;;;;;;9.73;2.50;;;3.10;1.00;;;;;;5035906;28;20404;-90
2022/04/03 07:22:42;;;;;;;4.23;3.10;;;3.10;1.00;;;;;;5055742;28;20412;-88
2022/04/03 07:25:08;;;;;;;6.27;2.63;;;3.00;5.00;;;;;;5038164;28;20424;-87
2022/04/03 07:27:37;;;;;;;4.10;1.90;;;3.00;99.90;;;;;;5056486;28;20499;-88
2022/04/03 07:30:05;;;;;;;7.30;3.60;;;3.10;1.00;;;;;;5055663;28;20502;-87
2022/04/03 07:32:31;;;;;;;6.00;2.27;;;3.20;1.00;;;;;;5054959;28;20412;-86
2022/04/03 07:34:57;;;;;;;4.87;2.43;;;3.20;99.90;;;;;;5054595;28;20536;-86
2022/04/03 07:37:22;;;;;;;2.70;1.67;;;3.30;1.00;;;;;;5052909;28;20428;-84
2022/04/03 07:39:48;;;;;;;3.10;1.97;;;3.40;1.00;;;;;;5059498;28;20530;-85
2022/04/03 07:42:13;;;;;;;3.63;1.90;;;3.70;1.00;;;;;;5042928;28;20253;-85
2022/04/03 07:44:39;;;;;;;1.50;0.77;;;3.80;1.00;;;;;;5061786;28;20174;-85
2022/04/03 07:47:08;;;;;;;3.43;2.07;;;4.20;1.00;;;;;;5061104;28;20193;-85
2022/04/03 07:49:33;;;;;;;2.00;1.40;;;4.40;1.00;;;;;;5047488;28;20626;-86
2022/04/03 07:52:02;;;;;;;2.43;1.50;;;4.60;99.90;;;;;;5043186;28;20420;-85
2022/04/03 07:54:29;;;;;;;1.90;1.30;;;4.70;99.90;;;;;;5049353;28;20170;-86
2022/04/03 07:56:55;;;;;;;2.13;1.40;;;4.60;1.00;;;;;;5063752;28;20408;-85
2022/04/03 07:59:20;;;;;;;4.47;1.33;;;4.60;1.00;;;;;;5047884;28;20427;-86
2022/04/03 08:01:46;;;;;;;2.07;1.13;;;4.70;1.00;;;;;;5042432;28;20189;-85
2022/04/03 08:04:14;;;;;;;1.73;1.30;;;4.60;1.00;;;;;;5061213;28;20172;-84
2022/04/03 08:06:40;;;;;;;4.80;1.00;;;4.50;1.00;;;;;;5044495;28;20221;-83
2022/04/03 08:09:07;;;;;;;4.03;1.37;;;4.20;1.00;;;;;;5041453;28;20578;-82
2022/04/03 08:11:33;;;;;;;1.83;1.07;;;4.00;1.00;;;;;;5059015;28;20166;-84
2022/04/03 08:13:59;;;;;;;1.13;1.03;;;3.90;9.30;;;;;;5042743;28;20446;-85
2022/04/03 08:16:25;;;;;;;3.37;0.83;;;3.80;12.40;;;;;;5043045;28;20424;-85
2022/04/03 08:18:50;;;;;;;1.27;0.50;;;3.70;33.40;;;;;;5055986;28;20408;-84
2022/04/03 08:21:18;;;;;;;1.57;0.67;;;3.70;81.80;;;;;;5054215;28;20563;-86
2022/04/03 08:23:44;;;;;;;2.83;1.30;;;3.70;99.90;;;;;;5036234;28;20231;-84
2022/04/03 08:26:11;;;;;;;2.07;1.37;;;3.70;99.90;;;;;;5054099;28;20514;-86
2022/04/03 08:28:37;;;;;;;2.57;1.33;;;3.80;99.90;;;;;;5036587;28;20815;-84
2022/04/03 08:31:02;;;;;;;3.27;1.80;;;3.60;99.90;;;;;;5053505;28;20435;-85
2022/04/03 08:33:28;;;;;;;1.90;1.20;;;3.50;99.90;;;;;;5035732;28;20185;-85
2022/04/03 08:35:53;;;;;;;4.07;2.07;;;3.70;99.90;;;;;;5053707;28;20181;-85
2022/04/03 08:38:19;;;;;;;2.20;1.90;;;3.80;99.90;;;;;;5036124;28;20170;-84
2022/04/03 08:40:51;;;;;;;2.67;1.90;;;4.00;99.90;;;;;;5053729;28;20273;-85
2022/04/03 08:43:16;;;;;;;4.10;2.60;;;3.90;99.90;;;;;;5035612;28;20188;-86
2022/04/03 08:45:42;;;;;;;5.20;2.47;;;4.30;99.90;;;;;;5053557;28;20412;-86
2022/04/03 08:48:08;;;;;;;4.50;2.10;;;4.60;99.90;;;;;;5035184;28;20177;-85
2022/04/03 08:50:37;;;;;;;2.50;2.30;;;5.50;1.00;;;;;;5035534;28;20185;-85
2022/04/03 08:53:06;;;;;;;2.80;1.87;;;8.10;99.90;;;;;;5035872;28;20800;-87
2022/04/03 08:55:32;;;;;;;2.70;1.77;;;9.90;1.00;;;;;;5035618;28;20434;-88
2022/04/03 08:57:57;;;;;;;3.53;1.20;;;10.40;99.90;;;;;;5053425;28;20507;-86
2022/04/03 09:00:26;;;;;;;2.47;1.00;;;7.90;1.00;;;;;;5035525;28;20229;-86
2022/04/03 09:02:52;;;;;;;3.43;2.13;;;6.70;1.00;;;;;;5035191;28;20629;-88
2022/04/03 09:05:18;;;;;;;5.50;1.60;;;6.00;99.90;;;;;;5035734;28;20482;-88
2022/04/03 09:07:58;;;;;;;4.47;1.87;;;5.60;1.00;;;;;;5033206;28;20228;-88
2022/04/03 09:10:23;;;;;;;3.63;1.83;;;5.40;1.00;;;;;;5034051;28;20464;-89
2022/04/03 09:12:50;;;;;;;4.20;1.90;;;5.20;1.00;;;;;;5032706;28;20923;-87
2022/04/03 09:15:22;;;;;;;6.70;1.90;;;5.10;15.40;;;;;;5032644;28;20178;-89
2022/04/03 09:17:52;;;;;;;2.70;1.30;;;5.20;44.30;;;;;;5034029;28;20777;-89
2022/04/03 09:20:23;;;;;;;4.60;2.23;;;5.40;1.00;;;;;;5033563;28;20431;-88
2022/04/03 09:22:51;;;;;;;2.57;1.90;;;5.50;1.00;;;;;;5034039;28;20500;-88
2022/04/03 09:25:22;;;;;;;3.23;2.03;;;5.70;1.00;;;;;;5033806;28;20419;-87
2022/04/03 09:27:53;;;;;;;6.00;2.23;;;7.70;99.90;;;;;;5033657;28;20463;-88
2022/04/03 09:30:29;;;;;;;5.23;1.67;;;9.00;99.90;;;;;;5033079;28;20491;-88
2022/04/03 09:32:57;;;;;;;2.70;1.33;;;9.90;1.00;;;;;;5032726;28;20402;-87
2022/04/03 09:35:27;;;;;;;5.20;1.30;;;11.20;99.90;;;;;;5033231;28;20748;-88
2022/04/03 09:38:12;;;;;;;3.63;1.73;;;11.70;99.90;;;;;;5031642;28;20464;-88
2022/04/03 09:40:45;;;;;;;2.17;1.97;;;13.10;99.90;;;;;;5032833;28;20462;-88
2022/04/03 09:43:20;;;;;;;3.00;1.63;;;14.40;93.00;;;;;;5033723;28;20506;-87
2022/04/03 09:45:51;;;;;;;3.30;2.47;;;14.50;51.60;;;;;;5036900;28;20455;-87
2022/04/03 09:48:25;;;;;;;5.20;2.53;;;14.30;39.70;;;;;;5036367;28;20434;-87
2022/04/03 09:51:03;;;;;;;4.33;1.67;;;13.00;40.20;;;;;;5035562;28;20445;-87
2022/04/03 09:53:39;;;;;;;3.43;1.77;;;12.30;49.90;;;;;;5032738;28;20421;-86
2022/04/03 09:56:04;;;;;;;3.00;1.60;;;12.50;89.00;;;;;;5035932;28;20807;-86
2022/04/03 09:58:30;;;;;;;2.93;1.70;;;13.30;48.50;;;;;;5035361;28;20427;-87
2022/04/03 10:00:55;;;;;;;3.87;1.50;;;14.10;43.20;;;;;;5032610;28;20182;-87
2022/04/03 10:03:23;;;;;;;3.13;1.03;;;14.50;18.60;;;;;;5030093;28;20232;-87
2022/04/03 10:05:50;;;;;;;4.50;1.80;;;15.30;14.90;;;;;;5033947;28;20372;-88
2022/04/03 10:08:16;;;;;;;5.30;1.73;;;13.80;1.00;;;;;;5056050;28;20426;-87
2022/04/03 10:10:47;;;;;;;5.03;1.33;;;12.70;12.40;;;;;;5056154;28;20427;-87
2022/04/03 10:13:13;;;;;;;3.77;1.80;;;14.50;16.20;;;;;;5055997;28;20756;-87
2022/04/03 10:15:38;;;;;;;4.10;1.10;;;14.00;10.50;;;;;;5055728;28;20474;-87
2022/04/03 10:18:05;;;;;;;2.10;0.57;;;14.50;1.00;;;;;;5055441;28;20736;-87
2022/04/03 10:20:30;;;;;;;2.90;1.07;;;15.00;1.00;;;;;;5055797;28;20173;-87
2022/04/03 10:23:03;;;;;;;1.30;0.50;;;13.00;1.00;;;;;;5055695;28;20982;-87
2022/04/03 10:25:31;;;;;;;1.23;0.80;;;13.70;1.00;;;;;;5055612;28;20180;-87
2022/04/03 10:28:03;;;;;;;1.10;0.67;;;15.90;1.00;;;;;;5055519;28;20442;-87
2022/04/03 10:30:43;;;;;;;3.63;0.67;;;15.90;1.00;;;;;;5055152;28;20475;-87
2022/04/03 10:33:19;;;;;;;4.00;1.50;;;14.30;1.00;;;;;;5053542;28;20426;-87
2022/04/03 10:35:48;;;;;;;2.80;1.23;;;15.80;1.00;;;;;;5055663;28;20550;-86
2022/04/03 10:38:13;;;;;;;2.30;0.60;;;14.70;1.00;;;;;;5055892;28;20930;-87
2022/04/03 10:40:39;;;;;;;3.10;1.20;;;13.70;1.00;;;;;;5055470;28;20419;-88
2022/04/03 10:43:06;;;;;;;2.93;0.50;;;13.60;1.00;;;;;;5055027;28;20164;-88
2022/04/03 10:45:35;;;;;;;3.00;0.53;;;12.60;1.00;;;;;;5052721;28;20242;-88
2022/04/03 10:48:19;;;;;;;4.50;1.10;;;11.70;1.00;;;;;;5026201;28;20431;-87
2022/04/03 10:51:07;;;;;;;2.50;0.33;;;10.70;1.00;;;;;;5035521;28;20431;-87
2022/04/03 10:53:47;;;;;;;3.10;0.80;;;10.20;1.00;;;;;;5034886;28;20772;-88
2022/04/03 10:56:28;;;;;;;1.60;0.60;;;9.40;54.60;;;;;;5033431;28;20498;-86
2022/04/03 10:58:56;;;;;;;1.80;0.50;;;8.80;99.90;;;;;;5035272;28;20409;-89
2022/04/03 11:01:33;;;;;;;1.83;0.47;;;8.40;1.00;;;;;;5035449;28;20430;-89
2022/04/03 11:04:10;;;;;;;1.00;0.47;;;8.10;1.00;;;;;;5036110;28;20434;-89
2022/04/03 11:06:38;;;;;;;1.90;0.43;;;7.80;1.00;;;;;;5018040;28;20473;-88
2022/04/03 11:09:06;;;;;;;2.67;0.37;;;7.70;99.90;;;;;;5035978;28;20806;-87
2022/04/03 11:11:34;;;;;;;5.43;0.77;;;7.30;1.00;;;;;;5035929;28;20918;-87
2022/04/03 11:14:06;;;;;;;3.00;0.73;;;6.90;50.40;;;;;;5035753;28;20455;-87
2022/04/03 11:16:53;;;;;;;2.13;0.90;;;6.40;99.90;;;;;;5035743;28;20452;-87
2022/04/03 11:19:44;;;;;;;2.50;0.60;;;6.10;1.00;;;;;;5018038;28;20413;-86
2022/04/03 11:22:13;;;;;;;1.40;0.77;;;6.10;1.00;;;;;;5018505;28;20421;-87
2022/04/03 11:24:39;;;;;;;5.97;0.77;;;6.20;1.00;;;;;;5036055;28;20424;-89
2022/04/03 11:27:06;;;;;;;1.33;0.53;;;6.40;1.00;;;;;;5036065;28;20418;-89
2022/04/03 11:29:32;;;;;;;4.83;0.70;;;6.80;1.00;;;;;;5035212;28;20258;-85
2022/04/03 11:32:00;;;;;;;8.13;1.07;;;7.70;1.00;;;;;;5021118;28;20877;-85
2022/04/03 11:34:32;;;;;;;4.50;0.37;;;8.50;99.90;;;;;;5054129;28;20434;-86
2022/04/03 11:37:03;;;;;;;2.97;0.87;;;9.20;28.70;;;;;;5051034;28;20435;-87
2022/04/03 11:39:38;;;;;;;3.87;0.27;;;10.80;99.90;;;;;;5058553;28;20420;-90
2022/04/03 11:42:09;;;;;;;1.20;0.30;;;12.20;99.90;;;;;;5061794;28;20421;-87
2022/04/03 11:44:38;;;;;;;2.83;1.17;;;13.40;99.90;;;;;;5060642;28;20412;-89
2022/04/03 11:47:05;;;;;;;2.90;0.20;;;13.30;99.90;;;;;;5058579;28;20423;-94
2022/04/03 11:49:32;;;;;;;2.20;0.30;;;11.90;99.90;;;;;;5055779;28;20465;-84
2022/04/03 11:52:09;;;;;;;1.80;0.30;;;12.60;99.90;;;;;;5057767;28;20408;-85
2022/04/03 11:54:38;;;;;;;0.60;0.30;;;13.10;99.90;;;;;;5061302;28;20431;-90
2022/04/03 11:57:08;;;;;;;0.70;0.20;;;13.90;99.90;;;;;;5054321;28;20408;-84
2022/04/03 11:59:35;;;;;;;1.60;0.30;;;14.50;99.90;;;;;;5055193;28;20416;-95
2022/04/03 12:02:12;;;;;;;0.97;0.30;;;15.20;87.80;;;;;;5072544;28;20415;-86
2022/04/03 12:04:40;;;;;;;2.83;0.23;;;14.80;76.90;;;;;;5072100;28;20387;-88
2022/04/03 12:07:05;;;;;;;2.30;0.47;;;14.70;40.10;;;;;;5069820;28;20447;-85
2022/04/03 12:09:32;;;;;;;0.70;0.20;;;15.30;51.90;;;;;;5233132;22;20765;-84
2022/04/03 12:12:04;;;;;;;2.00;0.30;;;16.00;30.50;;;;;;5111519;28;20175;-85
2022/04/03 12:14:31;;;;;;;1.37;0.40;;;15.70;28.80;;;;;;5079612;28;20430;-92
2022/04/03 12:17:08;;;;;;;2.07;0.40;;;14.90;16.50;;;;;;5080845;28;20417;-89
2022/04/03 12:19:37;;;;;;;1.37;0.20;;;13.70;1.80;;;;;;5109201;22;1056544;-88
2022/04/03 12:22:08;;;;;;;3.77;0.50;;;12.60;6.60;;;;;;5081390;28;20481;-89
2022/04/03 12:24:35;;;;;;;5.30;1.27;;;12.00;16.70;;;;;;5075734;28;20419;-92
2022/04/03 12:27:05;;;;;;;2.37;0.43;;;12.20;24.20;;;;;;5077422;28;20425;-92
2022/04/03 12:29:32;;;;;;;5.30;0.80;;;11.40;30.50;;;;;;5076352;28;20464;-92
2022/04/03 12:32:04;;;;;;;1.80;0.20;;;10.30;59.20;;;;;;5078054;28;20814;-91
2022/04/03 12:34:33;;;;;;;0.97;0.40;;;9.20;52.20;;;;;;5069117;28;20422;-88
2022/04/03 12:37:00;;;;;;;2.97;0.67;;;9.10;99.90;;;;;;5060574;28;20440;-93
2022/04/03 12:39:30;;;;;;;1.30;0.40;;;9.20;99.90;;;;;;5071750;28;20474;-88
2022/04/03 12:42:07;;;;;;;0.80;0.20;;;9.50;99.90;;;;;;5057636;28;20429;-93
2022/04/03 12:44:32;;;;;;;0.80;0.30;;;9.60;99.90;;;;;;5072582;28;20411;-87
2022/04/03 12:46:58;;;;;;;1.20;0.50;;;10.20;99.90;;;;;;5073808;28;20757;-84
2022/04/03 12:49:23;;;;;;;1.63;0.20;;;11.60;99.90;;;;;;5075125;28;20265;-86
2022/04/03 12:51:49;;;;;;;2.87;0.23;;;11.50;99.90;;;;;;5074033;28;20177;-80
2022/04/03 12:54:15;;;;;;;0.70;0.20;;;10.70;99.90;;;;;;5073157;28;20717;-82
2022/04/03 12:59:38;;;;;;;2.30;0.40;;;9.90;99.90;;;;;;5072942;28;20494;-83